sensor_id;sensor_type;location;lat;lon;timestamp;P1;durP1;ratioP1;P2;durP2;ratioP2
19402;SDS011;9837;48.888;8.998;2023-06-26T00:01:33;9.13;;;6.53;;
19402;SDS011;9837;48.888;8.998;2023-06-26T00:04:04;9.40;;;7.13;;
19402;SDS011;9837;48.888;8.998;2023-06-26T00:06:30;8.10;;;7.03;;
19402;SDS011;9837;48.888;8.998;2023-06-26T00:08:57;8.60;;;7.20;;
19402;SDS011;9837;48.888;8.998;2023-06-26T00:11:24;10.07;;;6.70;;
19402;SDS011;9837;48.888;8.998;2023-06-26T00:13:51;9.13;;;6.30;;
19402;SDS011;9837;48.888;8.998;2023-06-26T00:16:17;11.07;;;7.03;;
19402;SDS011;9837;48.888;8.998;2023-06-26T00:18:43;9.30;;;6.77;;
19402;SDS011;9837;48.888;8.998;2023-06-26T00:21:09;8.17;;;7.00;;
19402;SDS011;9837;48.888;8.998;2023-06-26T00:23:35;8.33;;;6.70;;
19402;SDS011;9837;48.888;8.998;2023-06-26T00:26:02;8.63;;;6.90;;
19402;SDS011;9837;48.888;8.998;2023-06-26T00:28:30;8.93;;;6.70;;
19402;SDS011;9837;48.888;8.998;2023-06-26T00:30:57;8.13;;;6.97;;
19402;SDS011;9837;48.888;8.998;2023-06-26T00:33:23;8.77;;;6.83;;
19402;SDS011;9837;48.888;8.998;2023-06-26T00:35:49;7.67;;;6.60;;
19402;SDS011;9837;48.888;8.998;2023-06-26T00:38:15;6.97;;;6.23;;
19402;SDS011;9837;48.888;8.998;2023-06-26T00:40:42;9.13;;;6.47;;
19402;SDS011;9837;48.888;8.998;2023-06-26T00:43:09;8.87;;;6.77;;
19402;SDS011;9837;48.888;8.998;2023-06-26T00:45:35;8.17;;;6.77;;
19402;SDS011;9837;48.888;8.998;2023-06-26T00:48:01;9.67;;;6.87;;
19402;SDS011;9837;48.888;8.998;2023-06-26T00:50:27;7.43;;;6.60;;
19402;SDS011;9837;48.888;8.998;2023-06-26T00:52:54;8.23;;;7.17;;
19402;SDS011;9837;48.888;8.998;2023-06-26T00:55:25;10.03;;;7.07;;
19402;SDS011;9837;48.888;8.998;2023-06-26T00:57:54;8.60;;;7.00;;
19402;SDS011;9837;48.888;8.998;2023-06-26T01:00:20;9.93;;;7.10;;
19402;SDS011;9837;48.888;8.998;2023-06-26T01:02:46;7.47;;;6.53;;
19402;SDS011;9837;48.888;8.998;2023-06-26T01:05:12;9.43;;;7.17;;
19402;SDS011;9837;48.888;8.998;2023-06-26T01:07:46;9.80;;;7.07;;
19402;SDS011;9837;48.888;8.998;2023-06-26T01:10:13;7.67;;;6.83;;
19402;SDS011;9837;48.888;8.998;2023-06-26T01:12:39;9.23;;;7.20;;
19402;SDS011;9837;48.888;8.998;2023-06-26T01:15:05;8.77;;;7.40;;
19402;SDS011;9837;48.888;8.998;2023-06-26T01:17:32;8.77;;;6.83;;
19402;SDS011;9837;48.888;8.998;2023-06-26T01:19:58;10.80;;;7.40;;
19402;SDS011;9837;48.888;8.998;2023-06-26T01:22:27;9.27;;;7.50;;
19402;SDS011;9837;48.888;8.998;2023-06-26T01:28:04;8.67;;;7.37;;
19402;SDS011;9837;48.888;8.998;2023-06-26T01:30:35;9.63;;;7.17;;
19402;SDS011;9837;48.888;8.998;2023-06-26T01:33:05;9.43;;;7.03;;
19402;SDS011;9837;48.888;8.998;2023-06-26T01:35:31;7.37;;;6.47;;
19402;SDS011;9837;48.888;8.998;2023-06-26T01:38:17;7.00;;;6.10;;
19402;SDS011;9837;48.888;8.998;2023-06-26T01:40:45;7.63;;;6.43;;
19402;SDS011;9837;48.888;8.998;2023-06-26T01:43:15;8.10;;;6.50;;
19402;SDS011;9837;48.888;8.998;2023-06-26T01:46:03;10.93;;;6.70;;
19402;SDS011;9837;48.888;8.998;2023-06-26T01:48:33;7.27;;;5.80;;
19402;SDS011;9837;48.888;8.998;2023-06-26T01:51:09;7.47;;;6.43;;
19402;SDS011;9837;48.888;8.998;2023-06-26T01:53:38;9.93;;;6.47;;
19402;SDS011;9837;48.888;8.998;2023-06-26T01:56:13;7.03;;;5.97;;
19402;SDS011;9837;48.888;8.998;2023-06-26T01:58:45;8.07;;;6.27;;
19402;SDS011;9837;48.888;8.998;2023-06-26T02:01:12;8.43;;;6.83;;
19402;SDS011;9837;48.888;8.998;2023-06-26T02:03:38;8.13;;;6.73;;
19402;SDS011;9837;48.888;8.998;2023-06-26T02:06:04;7.87;;;6.20;;
19402;SDS011;9837;48.888;8.998;2023-06-26T02:08:30;8.87;;;6.57;;
19402;SDS011;9837;48.888;8.998;2023-06-26T02:10:58;7.10;;;6.20;;
19402;SDS011;9837;48.888;8.998;2023-06-26T02:13:24;7.47;;;6.23;;
19402;SDS011;9837;48.888;8.998;2023-06-26T02:15:50;9.70;;;6.37;;
19402;SDS011;9837;48.888;8.998;2023-06-26T02:18:16;7.87;;;6.27;;
19402;SDS011;9837;48.888;8.998;2023-06-26T02:20:42;7.23;;;6.10;;
19402;SDS011;9837;48.888;8.998;2023-06-26T02:23:09;7.77;;;6.30;;
19402;SDS011;9837;48.888;8.998;2023-06-26T02:25:35;10.83;;;6.10;;
19402;SDS011;9837;48.888;8.998;2023-06-26T02:28:01;7.53;;;6.67;;
19402;SDS011;9837;48.888;8.998;2023-06-26T02:30:27;8.93;;;6.60;;
19402;SDS011;9837;48.888;8.998;2023-06-26T02:32:53;13.80;;;6.40;;
19402;SDS011;9837;48.888;8.998;2023-06-26T02:35:21;10.97;;;6.93;;
19402;SDS011;9837;48.888;8.998;2023-06-26T02:37:47;7.87;;;6.30;;
19402;SDS011;9837;48.888;8.998;2023-06-26T02:40:13;8.90;;;6.47;;
19402;SDS011;9837;48.888;8.998;2023-06-26T02:42:40;7.10;;;6.10;;
19402;SDS011;9837;48.888;8.998;2023-06-26T02:45:06;7.37;;;6.13;;
19402;SDS011;9837;48.888;8.998;2023-06-26T02:47:32;7.10;;;5.50;;
19402;SDS011;9837;48.888;8.998;2023-06-26T02:50:00;7.63;;;6.73;;
19402;SDS011;9837;48.888;8.998;2023-06-26T02:52:28;7.60;;;6.37;;
19402;SDS011;9837;48.888;8.998;2023-06-26T02:54:54;9.87;;;5.80;;
19402;SDS011;9837;48.888;8.998;2023-06-26T02:57:20;7.30;;;6.13;;
19402;SDS011;9837;48.888;8.998;2023-06-26T02:59:48;11.37;;;6.30;;
19402;SDS011;9837;48.888;8.998;2023-06-26T03:02:14;7.20;;;6.13;;
19402;SDS011;9837;48.888;8.998;2023-06-26T03:04:40;7.20;;;5.90;;
19402;SDS011;9837;48.888;8.998;2023-06-26T03:07:08;8.47;;;6.37;;
19402;SDS011;9837;48.888;8.998;2023-06-26T03:09:36;8.10;;;6.43;;
19402;SDS011;9837;48.888;8.998;2023-06-26T03:12:02;9.57;;;6.17;;
19402;SDS011;9837;48.888;8.998;2023-06-26T03:14:31;9.27;;;7.00;;
19402;SDS011;9837;48.888;8.998;2023-06-26T03:16:57;8.13;;;6.77;;
19402;SDS011;9837;48.888;8.998;2023-06-26T03:19:24;7.80;;;6.27;;
19402;SDS011;9837;48.888;8.998;2023-06-26T03:21:50;8.17;;;7.10;;
19402;SDS011;9837;48.888;8.998;2023-06-26T03:24:16;6.90;;;6.20;;
19402;SDS011;9837;48.888;8.998;2023-06-26T03:26:42;7.03;;;6.00;;
19402;SDS011;9837;48.888;8.998;2023-06-26T03:29:08;8.60;;;6.23;;
19402;SDS011;9837;48.888;8.998;2023-06-26T03:31:34;8.63;;;5.93;;
19402;SDS011;9837;48.888;8.998;2023-06-26T03:34:00;8.17;;;5.93;;
19402;SDS011;9837;48.888;8.998;2023-06-26T03:36:26;8.83;;;6.73;;
19402;SDS011;9837;48.888;8.998;2023-06-26T03:38:52;6.77;;;6.00;;
19402;SDS011;9837;48.888;8.998;2023-06-26T03:41:22;6.90;;;6.17;;
19402;SDS011;9837;48.888;8.998;2023-06-26T03:43:48;8.83;;;6.43;;
19402;SDS011;9837;48.888;8.998;2023-06-26T03:46:14;7.87;;;6.37;;
19402;SDS011;9837;48.888;8.998;2023-06-26T03:48:43;8.83;;;6.20;;
19402;SDS011;9837;48.888;8.998;2023-06-26T03:51:09;6.90;;;6.20;;
19402;SDS011;9837;48.888;8.998;2023-06-26T03:53:35;7.93;;;5.70;;
19402;SDS011;9837;48.888;8.998;2023-06-26T03:56:01;8.97;;;6.27;;
19402;SDS011;9837;48.888;8.998;2023-06-26T03:58:27;7.00;;;5.53;;
19402;SDS011;9837;48.888;8.998;2023-06-26T04:00:55;5.83;;;5.23;;
19402;SDS011;9837;48.888;8.998;2023-06-26T04:03:23;8.30;;;5.97;;
19402;SDS011;9837;48.888;8.998;2023-06-26T04:05:49;9.47;;;5.93;;
19402;SDS011;9837;48.888;8.998;2023-06-26T04:08:15;6.83;;;5.87;;
19402;SDS011;9837;48.888;8.998;2023-06-26T04:10:41;7.73;;;5.73;;
19402;SDS011;9837;48.888;8.998;2023-06-26T04:13:07;6.17;;;5.57;;
19402;SDS011;9837;48.888;8.998;2023-06-26T04:15:33;8.20;;;5.33;;
19402;SDS011;9837;48.888;8.998;2023-06-26T04:17:59;6.80;;;5.60;;
19402;SDS011;9837;48.888;8.998;2023-06-26T04:20:25;6.50;;;5.70;;
19402;SDS011;9837;48.888;8.998;2023-06-26T04:22:51;8.43;;;5.93;;
19402;SDS011;9837;48.888;8.998;2023-06-26T04:25:17;8.73;;;6.50;;
19402;SDS011;9837;48.888;8.998;2023-06-26T04:27:43;7.03;;;5.47;;
19402;SDS011;9837;48.888;8.998;2023-06-26T04:30:09;6.73;;;5.73;;
19402;SDS011;9837;48.888;8.998;2023-06-26T04:32:35;6.67;;;5.30;;
19402;SDS011;9837;48.888;8.998;2023-06-26T04:35:01;5.80;;;5.13;;
19402;SDS011;9837;48.888;8.998;2023-06-26T04:37:28;5.77;;;4.90;;
19402;SDS011;9837;48.888;8.998;2023-06-26T04:39:54;6.87;;;5.43;;
19402;SDS011;9837;48.888;8.998;2023-06-26T04:42:20;6.07;;;5.47;;
19402;SDS011;9837;48.888;8.998;2023-06-26T04:44:49;5.60;;;5.00;;
19402;SDS011;9837;48.888;8.998;2023-06-26T04:47:18;7.43;;;5.67;;
19402;SDS011;9837;48.888;8.998;2023-06-26T04:49:44;8.43;;;5.07;;
19402;SDS011;9837;48.888;8.998;2023-06-26T04:52:11;6.18;;;5.13;;
19402;SDS011;9837;48.888;8.998;2023-06-26T04:54:40;6.65;;;5.90;;
19402;SDS011;9837;48.888;8.998;2023-06-26T04:57:05;6.93;;;5.75;;
19402;SDS011;9837;48.888;8.998;2023-06-26T04:59:31;7.00;;;5.97;;
19402;SDS011;9837;48.888;8.998;2023-06-26T05:01:57;6.60;;;5.88;;
19402;SDS011;9837;48.888;8.998;2023-06-26T05:04:22;6.45;;;5.82;;
19402;SDS011;9837;48.888;8.998;2023-06-26T05:06:48;6.43;;;5.80;;
19402;SDS011;9837;48.888;8.998;2023-06-26T05:09:14;6.40;;;5.80;;
19402;SDS011;9837;48.888;8.998;2023-06-26T05:11:40;8.82;;;6.00;;
19402;SDS011;9837;48.888;8.998;2023-06-26T05:14:05;6.93;;;6.15;;
19402;SDS011;9837;48.888;8.998;2023-06-26T05:16:34;8.48;;;5.82;;
19402;SDS011;9837;48.888;8.998;2023-06-26T05:19:00;8.80;;;5.90;;
19402;SDS011;9837;48.888;8.998;2023-06-26T05:21:25;7.18;;;6.07;;
19402;SDS011;9837;48.888;8.998;2023-06-26T05:23:51;7.47;;;5.78;;
19402;SDS011;9837;48.888;8.998;2023-06-26T05:26:20;9.30;;;6.45;;
19402;SDS011;9837;48.888;8.998;2023-06-26T05:28:49;8.30;;;5.90;;
19402;SDS011;9837;48.888;8.998;2023-06-26T05:31:15;7.80;;;5.63;;
19402;SDS011;9837;48.888;8.998;2023-06-26T05:33:43;6.78;;;6.18;;
19402;SDS011;9837;48.888;8.998;2023-06-26T05:36:10;9.18;;;5.50;;
19402;SDS011;9837;48.888;8.998;2023-06-26T05:38:37;6.75;;;6.15;;
19402;SDS011;9837;48.888;8.998;2023-06-26T05:41:03;7.80;;;6.30;;
19402;SDS011;9837;48.888;8.998;2023-06-26T05:43:29;6.72;;;6.05;;
19402;SDS011;9837;48.888;8.998;2023-06-26T05:45:56;7.05;;;6.45;;
19402;SDS011;9837;48.888;8.998;2023-06-26T05:48:22;6.93;;;6.22;;
19402;SDS011;9837;48.888;8.998;2023-06-26T05:50:48;7.13;;;6.53;;
19402;SDS011;9837;48.888;8.998;2023-06-26T05:53:14;6.55;;;5.95;;
19402;SDS011;9837;48.888;8.998;2023-06-26T05:55:40;8.77;;;6.00;;
19402;SDS011;9837;48.888;8.998;2023-06-26T05:58:07;6.30;;;5.70;;
19402;SDS011;9837;48.888;8.998;2023-06-26T06:00:33;7.38;;;6.25;;
19402;SDS011;9837;48.888;8.998;2023-06-26T06:02:59;7.78;;;6.85;;
19402;SDS011;9837;48.888;8.998;2023-06-26T06:05:25;7.30;;;6.63;;
19402;SDS011;9837;48.888;8.998;2023-06-26T06:07:50;10.35;;;7.30;;
19402;SDS011;9837;48.888;8.998;2023-06-26T06:10:16;8.25;;;6.40;;
19402;SDS011;9837;48.888;8.998;2023-06-26T06:12:41;8.07;;;6.53;;
19402;SDS011;9837;48.888;8.998;2023-06-26T06:15:07;11.63;;;7.50;;
19402;SDS011;9837;48.888;8.998;2023-06-26T06:17:33;13.35;;;7.38;;
19402;SDS011;9837;48.888;8.998;2023-06-26T06:19:58;9.23;;;7.55;;
19402;SDS011;9837;48.888;8.998;2023-06-26T06:22:24;11.45;;;7.15;;
19402;SDS011;9837;48.888;8.998;2023-06-26T06:24:50;10.38;;;7.57;;
19402;SDS011;9837;48.888;8.998;2023-06-26T06:27:15;13.48;;;7.55;;
19402;SDS011;9837;48.888;8.998;2023-06-26T06:29:41;9.23;;;6.90;;
19402;SDS011;9837;48.888;8.998;2023-06-26T06:32:07;10.98;;;7.72;;
19402;SDS011;9837;48.888;8.998;2023-06-26T06:34:32;11.57;;;8.82;;
19402;SDS011;9837;48.888;8.998;2023-06-26T06:36:58;9.85;;;7.40;;
19402;SDS011;9837;48.888;8.998;2023-06-26T06:39:23;11.80;;;6.80;;
19402;SDS011;9837;48.888;8.998;2023-06-26T06:41:49;8.43;;;7.63;;
19402;SDS011;9837;48.888;8.998;2023-06-26T06:44:14;12.18;;;6.50;;
19402;SDS011;9837;48.888;8.998;2023-06-26T06:46:40;8.23;;;6.63;;
19402;SDS011;9837;48.888;8.998;2023-06-26T06:49:05;9.90;;;7.05;;
19402;SDS011;9837;48.888;8.998;2023-06-26T06:51:31;7.85;;;6.63;;
19402;SDS011;9837;48.888;8.998;2023-06-26T06:53:57;7.65;;;6.88;;
19402;SDS011;9837;48.888;8.998;2023-06-26T06:56:22;8.10;;;7.30;;
19402;SDS011;9837;48.888;8.998;2023-06-26T06:58:48;7.72;;;6.55;;
19402;SDS011;9837;48.888;8.998;2023-06-26T07:01:14;7.53;;;6.60;;
19402;SDS011;9837;48.888;8.998;2023-06-26T07:03:39;8.50;;;7.28;;
19402;SDS011;9837;48.888;8.998;2023-06-26T07:06:05;7.68;;;6.97;;
19402;SDS011;9837;48.888;8.998;2023-06-26T07:08:30;7.38;;;6.68;;
19402;SDS011;9837;48.888;8.998;2023-06-26T07:10:56;11.65;;;7.15;;
19402;SDS011;9837;48.888;8.998;2023-06-26T07:13:22;8.18;;;6.25;;
19402;SDS011;9837;48.888;8.998;2023-06-26T07:15:48;7.75;;;6.97;;
19402;SDS011;9837;48.888;8.998;2023-06-26T07:18:14;7.07;;;6.38;;
19402;SDS011;9837;48.888;8.998;2023-06-26T07:20:39;6.63;;;6.00;;
19402;SDS011;9837;48.888;8.998;2023-06-26T07:23:05;9.13;;;6.40;;
19402;SDS011;9837;48.888;8.998;2023-06-26T07:25:31;7.10;;;6.40;;
19402;SDS011;9837;48.888;8.998;2023-06-26T07:27:57;6.80;;;5.85;;
19402;SDS011;9837;48.888;8.998;2023-06-26T07:30:22;7.90;;;6.50;;
19402;SDS011;9837;48.888;8.998;2023-06-26T07:32:49;7.97;;;6.15;;
19402;SDS011;9837;48.888;8.998;2023-06-26T07:35:15;9.73;;;6.07;;
19402;SDS011;9837;48.888;8.998;2023-06-26T07:37:41;7.15;;;6.20;;
19402;SDS011;9837;48.888;8.998;2023-06-26T07:40:06;6.18;;;5.57;;
19402;SDS011;9837;48.888;8.998;2023-06-26T07:42:33;8.00;;;6.28;;
19402;SDS011;9837;48.888;8.998;2023-06-26T07:44:59;6.07;;;5.53;;
19402;SDS011;9837;48.888;8.998;2023-06-26T07:47:25;12.70;;;6.05;;
19402;SDS011;9837;48.888;8.998;2023-06-26T07:49:51;7.95;;;6.10;;
19402;SDS011;9837;48.888;8.998;2023-06-26T07:52:18;5.90;;;5.32;;
19402;SDS011;9837;48.888;8.998;2023-06-26T07:54:44;6.65;;;5.57;;
19402;SDS011;9837;48.888;8.998;2023-06-26T07:57:10;6.10;;;5.10;;
19402;SDS011;9837;48.888;8.998;2023-06-26T07:59:37;5.45;;;4.95;;
19402;SDS011;9837;48.888;8.998;2023-06-26T08:02:03;8.35;;;5.65;;
19402;SDS011;9837;48.888;8.998;2023-06-26T08:04:30;6.40;;;5.28;;
19402;SDS011;9837;48.888;8.998;2023-06-26T08:06:57;6.43;;;5.57;;
19402;SDS011;9837;48.888;8.998;2023-06-26T08:09:25;8.20;;;5.53;;
19402;SDS011;9837;48.888;8.998;2023-06-26T08:11:52;6.55;;;5.95;;
19402;SDS011;9837;48.888;8.998;2023-06-26T08:14:18;8.15;;;5.68;;
19402;SDS011;9837;48.888;8.998;2023-06-26T08:16:44;7.60;;;5.22;;
19402;SDS011;9837;48.888;8.998;2023-06-26T08:19:11;5.97;;;5.38;;
19402;SDS011;9837;48.888;8.998;2023-06-26T08:21:37;6.50;;;5.50;;
19402;SDS011;9837;48.888;8.998;2023-06-26T08:24:03;7.43;;;5.50;;
19402;SDS011;9837;48.888;8.998;2023-06-26T08:26:28;7.25;;;6.22;;
19402;SDS011;9837;48.888;8.998;2023-06-26T08:28:54;8.18;;;6.13;;
19402;SDS011;9837;48.888;8.998;2023-06-26T08:31:20;12.38;;;5.85;;
19402;SDS011;9837;48.888;8.998;2023-06-26T08:33:46;5.93;;;5.28;;
19402;SDS011;9837;48.888;8.998;2023-06-26T08:36:12;5.20;;;4.75;;
19402;SDS011;9837;48.888;8.998;2023-06-26T08:38:37;6.93;;;4.70;;
19402;SDS011;9837;48.888;8.998;2023-06-26T08:41:07;8.73;;;4.53;;
19402;SDS011;9837;48.888;8.998;2023-06-26T08:43:33;8.27;;;4.97;;
19402;SDS011;9837;48.888;8.998;2023-06-26T08:45:59;5.82;;;4.90;;
19402;SDS011;9837;48.888;8.998;2023-06-26T08:48:25;10.75;;;4.72;;
19402;SDS011;9837;48.888;8.998;2023-06-26T08:50:54;6.45;;;4.88;;
19402;SDS011;9837;48.888;8.998;2023-06-26T08:56:06;5.18;;;4.68;;
19402;SDS011;9837;48.888;8.998;2023-06-26T08:58:33;6.95;;;4.72;;
19402;SDS011;9837;48.888;8.998;2023-06-26T09:01:01;8.30;;;5.28;;
19402;SDS011;9837;48.888;8.998;2023-06-26T09:03:28;5.97;;;4.97;;
19402;SDS011;9837;48.888;8.998;2023-06-26T09:05:55;7.75;;;4.90;;
19402;SDS011;9837;48.888;8.998;2023-06-26T09:08:20;6.82;;;5.00;;
19402;SDS011;9837;48.888;8.998;2023-06-26T09:10:46;6.03;;;4.93;;
19402;SDS011;9837;48.888;8.998;2023-06-26T09:13:12;6.55;;;5.30;;
19402;SDS011;9837;48.888;8.998;2023-06-26T09:15:44;9.93;;;5.57;;
19402;SDS011;9837;48.888;8.998;2023-06-26T09:18:11;6.93;;;4.82;;
19402;SDS011;9837;48.888;8.998;2023-06-26T09:20:37;5.13;;;4.72;;
19402;SDS011;9837;48.888;8.998;2023-06-26T09:23:03;5.45;;;4.95;;
19402;SDS011;9837;48.888;8.998;2023-06-26T09:25:30;6.28;;;5.32;;
19402;SDS011;9837;48.888;8.998;2023-06-26T09:27:56;8.32;;;5.32;;
19402;SDS011;9837;48.888;8.998;2023-06-26T09:30:22;7.22;;;5.32;;
19402;SDS011;9837;48.888;8.998;2023-06-26T09:32:48;5.57;;;5.05;;
19402;SDS011;9837;48.888;8.998;2023-06-26T09:35:15;5.60;;;5.10;;
19402;SDS011;9837;48.888;8.998;2023-06-26T09:37:42;7.45;;;5.40;;
19402;SDS011;9837;48.888;8.998;2023-06-26T09:40:08;5.43;;;4.93;;
19402;SDS011;9837;48.888;8.998;2023-06-26T09:42:34;6.03;;;5.43;;
19402;SDS011;9837;48.888;8.998;2023-06-26T09:45:01;6.05;;;5.32;;
19402;SDS011;9837;48.888;8.998;2023-06-26T09:47:29;9.48;;;5.72;;
19402;SDS011;9837;48.888;8.998;2023-06-26T09:49:55;7.07;;;5.70;;
19402;SDS011;9837;48.888;8.998;2023-06-26T09:52:21;7.22;;;5.68;;
19402;SDS011;9837;48.888;8.998;2023-06-26T09:54:51;7.22;;;6.00;;
19402;SDS011;9837;48.888;8.998;2023-06-26T09:57:34;6.07;;;5.47;;
19402;SDS011;9837;48.888;8.998;2023-06-26T09:59:59;7.85;;;6.10;;
19402;SDS011;9837;48.888;8.998;2023-06-26T10:02:26;8.98;;;6.10;;
19402;SDS011;9837;48.888;8.998;2023-06-26T10:04:52;6.68;;;5.50;;
19402;SDS011;9837;48.888;8.998;2023-06-26T10:07:17;8.98;;;5.85;;
19402;SDS011;9837;48.888;8.998;2023-06-26T10:09:44;6.80;;;5.90;;
19402;SDS011;9837;48.888;8.998;2023-06-26T10:12:20;11.80;;;6.70;;
19402;SDS011;9837;48.888;8.998;2023-06-26T10:14:57;6.32;;;5.72;;
19402;SDS011;9837;48.888;8.998;2023-06-26T10:17:24;7.85;;;6.03;;
19402;SDS011;9837;48.888;8.998;2023-06-26T10:19:53;10.77;;;5.47;;
19402;SDS011;9837;48.888;8.998;2023-06-26T10:22:21;6.82;;;6.18;;
19402;SDS011;9837;48.888;8.998;2023-06-26T10:24:49;6.82;;;6.05;;
19402;SDS011;9837;48.888;8.998;2023-06-26T10:27:17;12.48;;;5.57;;
19402;SDS011;9837;48.888;8.998;2023-06-26T10:29:50;6.30;;;5.68;;
19402;SDS011;9837;48.888;8.998;2023-06-26T10:32:21;9.38;;;6.28;;
19402;SDS011;9837;48.888;8.998;2023-06-26T10:34:50;10.48;;;5.88;;
19402;SDS011;9837;48.888;8.998;2023-06-26T10:37:16;6.75;;;6.05;;
19402;SDS011;9837;48.888;8.998;2023-06-26T10:39:46;7.43;;;6.53;;
19402;SDS011;9837;48.888;8.998;2023-06-26T10:42:14;5.95;;;5.45;;
19402;SDS011;9837;48.888;8.998;2023-06-26T10:44:44;8.40;;;5.97;;
19402;SDS011;9837;48.888;8.998;2023-06-26T10:47:11;8.50;;;5.90;;
19402;SDS011;9837;48.888;8.998;2023-06-26T10:49:37;6.60;;;5.50;;
19402;SDS011;9837;48.888;8.998;2023-06-26T10:52:07;7.55;;;5.80;;
19402;SDS011;9837;48.888;8.998;2023-06-26T10:54:33;12.50;;;5.68;;
19402;SDS011;9837;48.888;8.998;2023-06-26T10:56:59;6.03;;;5.43;;
19402;SDS011;9837;48.888;8.998;2023-06-26T10:59:27;10.45;;;5.60;;
19402;SDS011;9837;48.888;8.998;2023-06-26T11:04:40;11.68;;;5.80;;
19402;SDS011;9837;48.888;8.998;2023-06-26T11:07:26;9.10;;;6.38;;
19402;SDS011;9837;48.888;8.998;2023-06-26T11:12:36;8.65;;;5.90;;
19402;SDS011;9837;48.888;8.998;2023-06-26T11:15:05;10.07;;;5.90;;
19402;SDS011;9837;48.888;8.998;2023-06-26T11:17:36;16.60;;;6.10;;
19402;SDS011;9837;48.888;8.998;2023-06-26T11:20:06;6.00;;;5.43;;
19402;SDS011;9837;48.888;8.998;2023-06-26T11:22:36;7.35;;;5.78;;
19402;SDS011;9837;48.888;8.998;2023-06-26T11:25:02;7.85;;;6.20;;
19402;SDS011;9837;48.888;8.998;2023-06-26T11:27:31;9.73;;;6.18;;
19402;SDS011;9837;48.888;8.998;2023-06-26T11:29:57;6.10;;;5.53;;
19402;SDS011;9837;48.888;8.998;2023-06-26T11:32:23;8.00;;;5.78;;
19402;SDS011;9837;48.888;8.998;2023-06-26T11:34:52;9.32;;;5.97;;
19402;SDS011;9837;48.888;8.998;2023-06-26T11:37:19;8.52;;;5.78;;
19402;SDS011;9837;48.888;8.998;2023-06-26T11:39:45;10.65;;;5.60;;
19402;SDS011;9837;48.888;8.998;2023-06-26T11:42:11;6.38;;;5.78;;
19402;SDS011;9837;48.888;8.998;2023-06-26T11:44:41;6.35;;;5.75;;
19402;SDS011;9837;48.888;8.998;2023-06-26T11:47:08;5.93;;;5.43;;
19402;SDS011;9837;48.888;8.998;2023-06-26T11:49:37;8.23;;;5.60;;
19402;SDS011;9837;48.888;8.998;2023-06-26T11:52:03;8.25;;;6.28;;
19402;SDS011;9837;48.888;8.998;2023-06-26T11:54:29;6.82;;;6.13;;
19402;SDS011;9837;48.888;8.998;2023-06-26T11:56:58;8.63;;;5.53;;
19402;SDS011;9837;48.888;8.998;2023-06-26T11:59:26;7.40;;;5.60;;
19402;SDS011;9837;48.888;8.998;2023-06-26T12:02:00;7.53;;;5.40;;
19402;SDS011;9837;48.888;8.998;2023-06-26T12:04:30;14.27;;;6.05;;
19402;SDS011;9837;48.888;8.998;2023-06-26T12:06:56;9.15;;;6.20;;
19402;SDS011;9837;48.888;8.998;2023-06-26T12:09:23;6.28;;;5.68;;
19402;SDS011;9837;48.888;8.998;2023-06-26T12:11:52;7.88;;;5.55;;
19402;SDS011;9837;48.888;8.998;2023-06-26T12:14:20;11.70;;;5.82;;
19402;SDS011;9837;48.888;8.998;2023-06-26T12:16:47;8.15;;;5.88;;
19402;SDS011;9837;48.888;8.998;2023-06-26T12:19:13;6.82;;;6.15;;
19402;SDS011;9837;48.888;8.998;2023-06-26T12:24:06;10.05;;;5.85;;
19402;SDS011;9837;48.888;8.998;2023-06-26T12:26:37;9.77;;;5.47;;
19402;SDS011;9837;48.888;8.998;2023-06-26T12:29:03;14.80;;;5.43;;
19402;SDS011;9837;48.888;8.998;2023-06-26T12:31:30;7.38;;;5.93;;
19402;SDS011;9837;48.888;8.998;2023-06-26T12:33:57;7.03;;;5.68;;
19402;SDS011;9837;48.888;8.998;2023-06-26T12:36:23;6.65;;;5.40;;
19402;SDS011;9837;48.888;8.998;2023-06-26T12:38:49;7.75;;;5.38;;
19402;SDS011;9837;48.888;8.998;2023-06-26T12:41:14;5.78;;;5.28;;
19402;SDS011;9837;48.888;8.998;2023-06-26T12:43:41;6.50;;;5.07;;
19402;SDS011;9837;48.888;8.998;2023-06-26T12:46:06;7.18;;;5.18;;
19402;SDS011;9837;48.888;8.998;2023-06-26T12:48:42;6.45;;;5.03;;
19402;SDS011;9837;48.888;8.998;2023-06-26T12:51:11;8.15;;;5.25;;
19402;SDS011;9837;48.888;8.998;2023-06-26T12:53:37;7.05;;;5.28;;
19402;SDS011;9837;48.888;8.998;2023-06-26T12:56:07;6.88;;;5.60;;
19402;SDS011;9837;48.888;8.998;2023-06-26T12:58:33;7.97;;;5.07;;
19402;SDS011;9837;48.888;8.998;2023-06-26T13:00:59;9.20;;;5.43;;
19402;SDS011;9837;48.888;8.998;2023-06-26T13:03:25;5.70;;;4.70;;
19402;SDS011;9837;48.888;8.998;2023-06-26T13:05:51;5.60;;;4.97;;
19402;SDS011;9837;48.888;8.998;2023-06-26T13:08:17;5.85;;;5.05;;
19402;SDS011;9837;48.888;8.998;2023-06-26T13:10:43;6.88;;;4.82;;
19402;SDS011;9837;48.888;8.998;2023-06-26T13:13:10;5.63;;;4.72;;
19402;SDS011;9837;48.888;8.998;2023-06-26T13:15:36;5.35;;;4.75;;
19402;SDS011;9837;48.888;8.998;2023-06-26T13:18:01;8.82;;;5.00;;
19402;SDS011;9837;48.888;8.998;2023-06-26T13:20:27;7.28;;;4.80;;
19402;SDS011;9837;48.888;8.998;2023-06-26T13:22:53;5.43;;;4.35;;
19402;SDS011;9837;48.888;8.998;2023-06-26T13:25:20;6.50;;;4.65;;
19402;SDS011;9837;48.888;8.998;2023-06-26T13:27:45;5.18;;;4.28;;
19402;SDS011;9837;48.888;8.998;2023-06-26T13:30:12;7.20;;;4.60;;
19402;SDS011;9837;48.888;8.998;2023-06-26T13:32:38;6.85;;;4.38;;
19402;SDS011;9837;48.888;8.998;2023-06-26T13:35:04;8.68;;;4.50;;
19402;SDS011;9837;48.888;8.998;2023-06-26T13:37:29;4.57;;;3.83;;
19402;SDS011;9837;48.888;8.998;2023-06-26T13:39:55;5.82;;;3.97;;
19402;SDS011;9837;48.888;8.998;2023-06-26T13:42:24;9.30;;;4.25;;
19402;SDS011;9837;48.888;8.998;2023-06-26T13:44:49;9.18;;;4.68;;
19402;SDS011;9837;48.888;8.998;2023-06-26T13:47:15;3.42;;;3.13;;
19402;SDS011;9837;48.888;8.998;2023-06-26T13:49:41;10.68;;;4.20;;
19402;SDS011;9837;48.888;8.998;2023-06-26T13:52:06;5.63;;;3.30;;
19402;SDS011;9837;48.888;8.998;2023-06-26T13:54:35;4.78;;;3.40;;
19402;SDS011;9837;48.888;8.998;2023-06-26T13:57:04;4.30;;;3.60;;
19402;SDS011;9837;48.888;8.998;2023-06-26T13:59:30;3.80;;;3.38;;
19402;SDS011;9837;48.888;8.998;2023-06-26T14:01:56;5.18;;;3.38;;
19402;SDS011;9837;48.888;8.998;2023-06-26T14:04:21;6.18;;;3.35;;
19402;SDS011;9837;48.888;8.998;2023-06-26T14:06:47;8.10;;;3.45;;
19402;SDS011;9837;48.888;8.998;2023-06-26T14:09:14;8.45;;;3.63;;
19402;SDS011;9837;48.888;8.998;2023-06-26T14:11:40;7.95;;;3.70;;
19402;SDS011;9837;48.888;8.998;2023-06-26T14:14:05;4.80;;;3.70;;
19402;SDS011;9837;48.888;8.998;2023-06-26T14:16:32;3.97;;;3.55;;
19402;SDS011;9837;48.888;8.998;2023-06-26T14:18:58;4.10;;;3.50;;
19402;SDS011;9837;48.888;8.998;2023-06-26T14:21:24;4.22;;;3.22;;
19402;SDS011;9837;48.888;8.998;2023-06-26T14:23:49;4.03;;;3.33;;
19402;SDS011;9837;48.888;8.998;2023-06-26T14:26:15;4.57;;;3.65;;
19402;SDS011;9837;48.888;8.998;2023-06-26T14:28:41;12.25;;;3.63;;
19402;SDS011;9837;48.888;8.998;2023-06-26T14:31:06;5.53;;;3.50;;
19402;SDS011;9837;48.888;8.998;2023-06-26T14:33:32;4.82;;;3.22;;
19402;SDS011;9837;48.888;8.998;2023-06-26T14:35:58;8.82;;;3.47;;
19402;SDS011;9837;48.888;8.998;2023-06-26T14:38:24;10.77;;;4.05;;
19402;SDS011;9837;48.888;8.998;2023-06-26T14:40:49;4.20;;;3.40;;
19402;SDS011;9837;48.888;8.998;2023-06-26T14:43:15;9.10;;;4.43;;
19402;SDS011;9837;48.888;8.998;2023-06-26T14:45:41;9.65;;;4.28;;
19402;SDS011;9837;48.888;8.998;2023-06-26T14:48:07;11.18;;;4.05;;
19402;SDS011;9837;48.888;8.998;2023-06-26T14:50:32;4.65;;;3.60;;
19402;SDS011;9837;48.888;8.998;2023-06-26T14:52:58;6.07;;;3.80;;
19402;SDS011;9837;48.888;8.998;2023-06-26T14:55:24;7.25;;;4.32;;
19402;SDS011;9837;48.888;8.998;2023-06-26T14:57:50;6.20;;;4.80;;
19402;SDS011;9837;48.888;8.998;2023-06-26T15:00:16;5.40;;;4.40;;
19402;SDS011;9837;48.888;8.998;2023-06-26T15:02:42;9.10;;;5.22;;
19402;SDS011;9837;48.888;8.998;2023-06-26T15:05:07;13.10;;;5.47;;
19402;SDS011;9837;48.888;8.998;2023-06-26T15:07:33;10.45;;;5.18;;
19402;SDS011;9837;48.888;8.998;2023-06-26T15:09:59;8.35;;;5.30;;
19402;SDS011;9837;48.888;8.998;2023-06-26T15:12:25;8.35;;;5.47;;